EAL333 KJFK-KMDW
Flight info
| Callsign | EAL333 |
|---|---|
| Flight time | N/A |
| Altitude | 36000 |
| Route | DEEZZ5 CANDR J60 DJB ASHEN BAGEL PANGG5 |
| Aircraft | L101/H-SDFGHIRWXY/S |
Departure
| Time | 2026-05-09 07:52 |
|---|---|
| Airport | John F. Kennedy International Airport (KJFK) |
Arrival
| Time | N/A |
|---|---|
| Airport | Chicago Midway International Airport (KMDW) |
| Time | Latitude | Longitude | Altitude | Speed | Heading |
|---|---|---|---|---|---|
| 2026-05-09 07:06 | 40.64190 | -73.79317 | 25 ft | 0 kts | 115° |
| 2026-05-09 07:09 | 40.64190 | -73.79316 | 25 ft | 0 kts | 115° |
| 2026-05-09 07:31 | 40.64190 | -73.79315 | 25 ft | 0 kts | 115° |
| 2026-05-09 07:32 | 40.64193 | -73.79325 | 25 ft | 2 kts | 115° |
| 2026-05-09 07:32 | 40.64198 | -73.79339 | 25 ft | 3 kts | 115° |
| 2026-05-09 07:33 | 40.64199 | -73.79341 | 25 ft | 3 kts | 115° |
| 2026-05-09 07:33 | 40.64201 | -73.79347 | 25 ft | 3 kts | 115° |
| 2026-05-09 07:33 | 40.64207 | -73.79364 | 25 ft | 3 kts | 115° |
| 2026-05-09 07:34 | 40.64217 | -73.79390 | 25 ft | 3 kts | 115° |
| 2026-05-09 07:34 | 40.64224 | -73.79411 | 25 ft | 0 kts | 115° |
| 2026-05-09 07:35 | 40.64224 | -73.79410 | 25 ft | 0 kts | 115° |
| 2026-05-09 07:37 | 40.64224 | -73.79409 | 25 ft | 0 kts | 115° |
| 2026-05-09 07:37 | 40.64223 | -73.79407 | 25 ft | 1 kts | 115° |
| 2026-05-09 07:37 | 40.64219 | -73.79386 | 25 ft | 4 kts | 92° |
| 2026-05-09 07:37 | 40.64240 | -73.79352 | 25 ft | 6 kts | 25° |
| 2026-05-09 07:38 | 40.64281 | -73.79383 | 25 ft | 9 kts | 299° |
| 2026-05-09 07:38 | 40.64313 | -73.79457 | 25 ft | 8 kts | 299° |
| 2026-05-09 07:38 | 40.64313 | -73.79507 | 25 ft | 3 kts | 235° |
| 2026-05-09 07:38 | 40.64292 | -73.79520 | 25 ft | 4 kts | 188° |
| 2026-05-09 07:39 | 40.64278 | -73.79518 | 25 ft | 5 kts | 173° |
| 2026-05-09 07:39 | 40.64261 | -73.79515 | 25 ft | 7 kts | 174° |
| 2026-05-09 07:40 | 40.64256 | -73.79515 | 25 ft | 7 kts | 174° |
| 2026-05-09 07:40 | 40.64199 | -73.79510 | 25 ft | 10 kts | 179° |
| 2026-05-09 07:40 | 40.64120 | -73.79508 | 25 ft | 13 kts | 179° |
| 2026-05-09 07:40 | 40.64042 | -73.79448 | 25 ft | 15 kts | 116° |
| 2026-05-09 07:41 | 40.63992 | -73.79326 | 25 ft | 15 kts | 121° |
| 2026-05-09 07:41 | 40.63940 | -73.79212 | 25 ft | 13 kts | 121° |
| 2026-05-09 07:41 | 40.63897 | -73.79116 | 25 ft | 12 kts | 121° |
| 2026-05-09 07:41 | 40.63858 | -73.79030 | 25 ft | 10 kts | 121° |
| 2026-05-09 07:42 | 40.63825 | -73.78957 | 25 ft | 8 kts | 121° |
| 2026-05-09 07:42 | 40.63792 | -73.78885 | 25 ft | 12 kts | 121° |
| 2026-05-09 07:42 | 40.63741 | -73.78772 | 25 ft | 17 kts | 121° |
| 2026-05-09 07:42 | 40.63677 | -73.78631 | 25 ft | 19 kts | 121° |
| 2026-05-09 07:43 | 40.63607 | -73.78475 | 25 ft | 22 kts | 121° |
| 2026-05-09 07:43 | 40.63525 | -73.78294 | 25 ft | 24 kts | 121° |
| 2026-05-09 07:43 | 40.63434 | -73.78093 | 25 ft | 27 kts | 120° |
| 2026-05-09 07:43 | 40.63423 | -73.77906 | 25 ft | 17 kts | 47° |
| 2026-05-09 07:44 | 40.63517 | -73.77826 | 25 ft | 15 kts | 31° |
| 2026-05-09 07:44 | 40.63587 | -73.77769 | 25 ft | 9 kts | 31° |
| 2026-05-09 07:44 | 40.63623 | -73.77740 | 25 ft | 4 kts | 31° |
| 2026-05-09 07:44 | 40.63648 | -73.77721 | 25 ft | 5 kts | 31° |
| 2026-05-09 07:45 | 40.63688 | -73.77688 | 25 ft | 9 kts | 31° |
| 2026-05-09 07:45 | 40.63727 | -73.77657 | 25 ft | 11 kts | 31° |
| 2026-05-09 07:45 | 40.63800 | -73.77599 | 25 ft | 13 kts | 31° |
| 2026-05-09 07:45 | 40.63867 | -73.77546 | 25 ft | 11 kts | 31° |
| 2026-05-09 07:46 | 40.63923 | -73.77501 | 25 ft | 8 kts | 31° |
| 2026-05-09 07:46 | 40.63967 | -73.77466 | 25 ft | 8 kts | 30° |
| 2026-05-09 07:46 | 40.64031 | -73.77417 | 25 ft | 14 kts | 30° |
| 2026-05-09 07:46 | 40.64125 | -73.77344 | 25 ft | 19 kts | 31° |
| 2026-05-09 07:47 | 40.64243 | -73.77252 | 25 ft | 21 kts | 30° |
| 2026-05-09 07:47 | 40.64376 | -73.77150 | 25 ft | 23 kts | 30° |
| 2026-05-09 07:47 | 40.64458 | -73.76991 | 25 ft | 20 kts | 25° |
| 2026-05-09 07:47 | 40.64583 | -73.76894 | 25 ft | 22 kts | 22° |
| 2026-05-09 07:48 | 40.64733 | -73.76885 | 25 ft | 21 kts | 21° |
| 2026-05-09 07:48 | 40.64838 | -73.76773 | 25 ft | 20 kts | 54° |
| 2026-05-09 07:48 | 40.64904 | -73.76626 | 25 ft | 15 kts | 96° |
| 2026-05-09 07:48 | 40.64870 | -73.76538 | 25 ft | 7 kts | 146° |
| 2026-05-09 07:49 | 40.64845 | -73.76533 | 25 ft | 2 kts | 182° |
| 2026-05-09 07:49 | 40.64820 | -73.76539 | 25 ft | 5 kts | 193° |
| 2026-05-09 07:49 | 40.64783 | -73.76556 | 25 ft | 4 kts | 200° |
| 2026-05-09 07:49 | 40.64776 | -73.76560 | 25 ft | 0 kts | 207° |
| 2026-05-09 07:50 | 40.64776 | -73.76561 | 25 ft | 0 kts | 207° |
| 2026-05-09 07:50 | 40.64775 | -73.76561 | 25 ft | 0 kts | 207° |
| 2026-05-09 07:51 | 40.64702 | -73.76611 | 25 ft | 38 kts | 208° |
| 2026-05-09 07:52 | 40.64241 | -73.76966 | 25 ft | 115 kts | 211° |
| 2026-05-09 07:52 | 40.63359 | -73.77658 | 65 ft | 172 kts | 211° |
| 2026-05-09 07:52 | 40.62316 | -73.78501 | 843 ft | 177 kts | 212° |
| 2026-05-09 07:52 | 40.61293 | -73.79342 | 1902 ft | 170 kts | 215° |
| 2026-05-09 07:53 | 40.60371 | -73.80126 | 3007 ft | 143 kts | 216° |
| 2026-05-09 07:53 | 40.59541 | -73.80874 | 3452 ft | 154 kts | 218° |
| 2026-05-09 07:53 | 40.58584 | -73.81822 | 3835 ft | 186 kts | 220° |
| 2026-05-09 07:53 | 40.57532 | -73.82880 | 4699 ft | 198 kts | 213° |
| 2026-05-09 07:54 | 40.56152 | -73.83174 | 5691 ft | 212 kts | 174° |
| 2026-05-09 07:54 | 40.54855 | -73.82187 | 6606 ft | 231 kts | 138° |
| 2026-05-09 07:54 | 40.54136 | -73.80291 | 7127 ft | 251 kts | 105° |
| 2026-05-09 07:54 | 40.53941 | -73.77956 | 7670 ft | 269 kts | 94° |
| 2026-05-09 07:55 | 40.53911 | -73.75430 | 8180 ft | 281 kts | 91° |
| 2026-05-09 07:55 | 40.53930 | -73.72978 | 8647 ft | 292 kts | 90° |
| 2026-05-09 07:55 | 40.53967 | -73.70187 | 9169 ft | 300 kts | 90° |
| 2026-05-09 07:55 | 40.54010 | -73.67448 | 9654 ft | 306 kts | 90° |
| 2026-05-09 07:56 | 40.54056 | -73.64598 | 10159 ft | 312 kts | 90° |
| 2026-05-09 07:56 | 40.54100 | -73.61730 | 10661 ft | 317 kts | 90° |
| 2026-05-09 07:56 | 40.54138 | -73.58785 | 11167 ft | 323 kts | 90° |
| 2026-05-09 07:56 | 40.54166 | -73.55820 | 11668 ft | 328 kts | 90° |
| 2026-05-09 07:57 | 40.54184 | -73.52801 | 12170 ft | 332 kts | 90° |
| 2026-05-09 07:57 | 40.54191 | -73.49744 | 12657 ft | 338 kts | 89° |
| 2026-05-09 07:57 | 40.54187 | -73.46558 | 12922 ft | 360 kts | 90° |
| 2026-05-09 07:57 | 40.54175 | -73.43431 | 13151 ft | 377 kts | 90° |
| 2026-05-09 07:58 | 40.54153 | -73.39894 | 13412 ft | 389 kts | 90° |
| 2026-05-09 07:58 | 40.54124 | -73.36294 | 13667 ft | 397 kts | 90° |
| 2026-05-09 07:58 | 40.54088 | -73.32666 | 13919 ft | 402 kts | 90° |
| 2026-05-09 07:58 | 40.54045 | -73.28964 | 14188 ft | 408 kts | 90° |
| 2026-05-09 07:59 | 40.53997 | -73.25192 | 14611 ft | 416 kts | 90° |
| 2026-05-09 07:59 | 40.53945 | -73.21388 | 15194 ft | 419 kts | 90° |
| 2026-05-09 07:59 | 40.53885 | -73.17587 | 15900 ft | 419 kts | 90° |
| 2026-05-09 07:59 | 40.53817 | -73.13728 | 16530 ft | 421 kts | 90° |
| 2026-05-09 08:00 | 40.54056 | -73.09949 | 17074 ft | 417 kts | 72° |
| 2026-05-09 08:00 | 40.55238 | -73.06522 | 17559 ft | 408 kts | 49° |
| 2026-05-09 08:00 | 40.57230 | -73.03950 | 17998 ft | 395 kts | 26° |
| 2026-05-09 08:00 | 40.59690 | -73.02619 | 18537 ft | 376 kts | 2° |
| 2026-05-09 08:01 | 40.62207 | -73.02576 | 19094 ft | 361 kts | 345° |
| 2026-05-09 08:01 | 40.64625 | -73.03332 | 19539 ft | 354 kts | 333° |
| 2026-05-09 08:01 | 40.66858 | -73.04713 | 19946 ft | 350 kts | 322° |
| 2026-05-09 08:01 | 40.68838 | -73.06569 | 20418 ft | 348 kts | 315° |
| 2026-05-09 08:02 | 40.70663 | -73.08629 | 20970 ft | 346 kts | 312° |
| 2026-05-09 08:02 | 40.72333 | -73.10889 | 21526 ft | 341 kts | 306° |
| 2026-05-09 08:02 | 40.73776 | -73.13354 | 21965 ft | 340 kts | 300° |
| 2026-05-09 08:02 | 40.74933 | -73.16068 | 22390 ft | 340 kts | 295° |
| 2026-05-09 08:03 | 40.75915 | -73.18902 | 22852 ft | 340 kts | 292° |
| 2026-05-09 08:03 | 40.76802 | -73.21786 | 23351 ft | 340 kts | 291° |
| 2026-05-09 08:03 | 40.77696 | -73.24676 | 23760 ft | 341 kts | 296° |
| 2026-05-09 08:03 | 40.78959 | -73.27303 | 24094 ft | 346 kts | 304° |
| 2026-05-09 08:04 | 40.80669 | -73.29631 | 24297 ft | 357 kts | 312° |
| 2026-05-09 08:04 | 40.82611 | -73.31737 | 24468 ft | 365 kts | 314° |
| 2026-05-09 08:04 | 40.84592 | -73.33880 | 24699 ft | 369 kts | 313° |
| 2026-05-09 08:04 | 40.86548 | -73.36065 | 25057 ft | 369 kts | 312° |
| 2026-05-09 08:05 | 40.88476 | -73.38281 | 25402 ft | 369 kts | 311° |
| 2026-05-09 08:05 | 40.90394 | -73.40554 | 25667 ft | 371 kts | 310° |
| 2026-05-09 08:05 | 40.92293 | -73.42878 | 25904 ft | 374 kts | 310° |
| 2026-05-09 08:05 | 40.93642 | -73.44573 | 26081 ft | 375 kts | 309° |
| 2026-05-09 08:06 | 40.95536 | -73.47023 | 26375 ft | 375 kts | 308° |
| 2026-05-09 08:06 | 40.97365 | -73.49467 | 26758 ft | 373 kts | 308° |
| 2026-05-09 08:06 | 40.99159 | -73.51950 | 27097 ft | 372 kts | 307° |
| 2026-05-09 08:06 | 41.00913 | -73.54472 | 27330 ft | 373 kts | 306° |
| 2026-05-09 08:07 | 41.02636 | -73.57055 | 27551 ft | 374 kts | 304° |
| 2026-05-09 08:07 | 41.04273 | -73.59714 | 27823 ft | 373 kts | 302° |
| 2026-05-09 08:07 | 41.05771 | -73.62506 | 28129 ft | 370 kts | 298° |
| 2026-05-09 08:07 | 41.07097 | -73.65411 | 28411 ft | 367 kts | 295° |
| 2026-05-09 08:08 | 41.08253 | -73.68400 | 28749 ft | 364 kts | 291° |
| 2026-05-09 08:08 | 41.09262 | -73.71456 | 29064 ft | 361 kts | 289° |
| 2026-05-09 08:08 | 41.10142 | -73.74538 | 29268 ft | 362 kts | 287° |
| 2026-05-09 08:08 | 41.10946 | -73.77753 | 29378 ft | 365 kts | 285° |
| 2026-05-09 08:09 | 41.11662 | -73.80972 | 29513 ft | 367 kts | 284° |
| 2026-05-09 08:09 | 41.12323 | -73.84237 | 29730 ft | 367 kts | 283° |
| 2026-05-09 08:09 | 41.12939 | -73.87517 | 30081 ft | 363 kts | 282° |
| 2026-05-09 08:09 | 41.13516 | -73.90761 | 30374 ft | 362 kts | 282° |
| 2026-05-09 08:10 | 41.14072 | -73.94021 | 30542 ft | 363 kts | 282° |
| 2026-05-09 08:10 | 41.15155 | -74.00630 | 30646 ft | 370 kts | 281° |
| 2026-05-09 08:10 | 41.15688 | -74.03967 | 30800 ft | 371 kts | 281° |
| 2026-05-09 08:11 | 41.16204 | -74.07306 | 31041 ft | 370 kts | 280° |
| 2026-05-09 08:11 | 41.16655 | -74.10668 | 31273 ft | 368 kts | 279° |
| 2026-05-09 08:11 | 41.17055 | -74.14024 | 31390 ft | 370 kts | 278° |
| 2026-05-09 08:12 | 41.18114 | -74.24259 | 31711 ft | 374 kts | 278° |
| 2026-05-09 08:12 | 41.18442 | -74.27673 | 31897 ft | 373 kts | 278° |
| 2026-05-09 08:12 | 41.18765 | -74.31090 | 31953 ft | 376 kts | 278° |
| 2026-05-09 08:13 | 41.19411 | -74.38016 | 31962 ft | 381 kts | 277° |
| 2026-05-09 08:13 | 41.19400 | -74.45052 | 31871 ft | 390 kts | 261° |
| 2026-05-09 08:14 | 41.17417 | -74.51870 | 31968 ft | 399 kts | 250° |
| 2026-05-09 08:14 | 41.16118 | -74.55093 | 32135 ft | 399 kts | 248° |
| 2026-05-09 08:14 | 41.14712 | -74.58286 | 32339 ft | 398 kts | 246° |
| 2026-05-09 08:15 | 41.11808 | -74.64541 | 32448 ft | 401 kts | 245° |
| 2026-05-09 08:15 | 41.08855 | -74.70785 | 32452 ft | 403 kts | 245° |
| 2026-05-09 08:16 | 41.05865 | -74.77134 | 32579 ft | 405 kts | 246° |
| 2026-05-09 08:16 | 41.04374 | -74.80315 | 32782 ft | 406 kts | 246° |
| 2026-05-09 08:16 | 41.02888 | -74.83499 | 32888 ft | 408 kts | 246° |
| 2026-05-09 08:17 | 41.00176 | -74.89340 | 33004 ft | 411 kts | 246° |
| 2026-05-09 08:17 | 40.98722 | -74.92575 | 33167 ft | 407 kts | 249° |
| 2026-05-09 08:17 | 40.97474 | -74.95911 | 33318 ft | 403 kts | 252° |
| 2026-05-09 08:18 | 40.96399 | -74.99326 | 33447 ft | 400 kts | 255° |
| 2026-05-09 08:18 | 40.95457 | -75.02760 | 33572 ft | 398 kts | 257° |
| 2026-05-09 08:18 | 40.94592 | -75.06257 | 33699 ft | 397 kts | 258° |
| 2026-05-09 08:18 | 40.93789 | -75.09739 | 33818 ft | 397 kts | 259° |
| 2026-05-09 08:19 | 40.92226 | -75.16749 | 33954 ft | 399 kts | 259° |
| 2026-05-09 08:19 | 40.90630 | -75.23755 | 34056 ft | 401 kts | 258° |
| 2026-05-09 08:20 | 40.88990 | -75.30823 | 34157 ft | 403 kts | 258° |
| 2026-05-09 08:20 | 40.87326 | -75.37910 | 34257 ft | 404 kts | 258° |
| 2026-05-09 08:21 | 40.85654 | -75.44993 | 34358 ft | 405 kts | 258° |
| 2026-05-09 08:21 | 40.83972 | -75.52093 | 34457 ft | 404 kts | 258° |
| 2026-05-09 08:22 | 40.82290 | -75.59169 | 34557 ft | 404 kts | 258° |
| 2026-05-09 08:22 | 40.80609 | -75.66219 | 34657 ft | 403 kts | 258° |
| 2026-05-09 08:23 | 40.78929 | -75.73252 | 34756 ft | 403 kts | 258° |
| 2026-05-09 08:23 | 40.77236 | -75.80322 | 34856 ft | 404 kts | 258° |
| 2026-05-09 08:24 | 40.75539 | -75.87382 | 34957 ft | 403 kts | 258° |
| 2026-05-09 08:24 | 40.73846 | -75.94402 | 35057 ft | 403 kts | 258° |
| 2026-05-09 08:25 | 40.72147 | -76.01433 | 35157 ft | 404 kts | 258° |
| 2026-05-09 08:25 | 40.70431 | -76.08510 | 35259 ft | 406 kts | 258° |
| 2026-05-09 08:26 | 40.68704 | -76.15612 | 35361 ft | 407 kts | 258° |
| 2026-05-09 08:26 | 40.67329 | -76.22757 | 35458 ft | 400 kts | 269° |
| 2026-05-09 08:27 | 40.67558 | -76.30018 | 35563 ft | 397 kts | 278° |
| 2026-05-09 08:27 | 40.68449 | -76.37174 | 35665 ft | 396 kts | 281° |
| 2026-05-09 08:28 | 40.69524 | -76.44294 | 35736 ft | 397 kts | 282° |
| 2026-05-09 08:28 | 40.70637 | -76.51445 | 35788 ft | 399 kts | 282° |
| 2026-05-09 08:29 | 40.71736 | -76.58570 | 35840 ft | 399 kts | 282° |
| 2026-05-09 08:29 | 40.72827 | -76.65768 | 35933 ft | 399 kts | 282° |
| 2026-05-09 08:30 | 40.73900 | -76.72963 | 35965 ft | 401 kts | 282° |
| 2026-05-09 08:30 | 40.74965 | -76.80181 | 35953 ft | 402 kts | 281° |